Yellow Mule RAWS (NWS)

Jump to table bottom
Date/Time Wind Direction Wind Speed knots Wind Gust knots RH % Accumulated Precip Inches Air Temp Fahrenheit
2022-05-21 15:04 ENE 2 6 61 3.56 37
2022-05-21 14:04 E 2 3 64 3.55 31
2022-05-21 13:04 E 2 9 61 3.55 29
2022-05-21 12:04 NNW 3 10 57 3.55 32
2022-05-21 11:04 NNE 4 10 56 3.55 30
2022-05-21 10:04 N 3 7 69 3.55 26
2022-05-21 09:04 NNE 3 6 74 3.54 24
2022-05-21 08:04 N 3 6 79 3.5 22
2022-05-21 07:04 N 3 6 85 3.5 18
2022-05-21 06:04 N 3 3 89 3.5 14
2022-05-21 05:04 NNE 3 4 91 3.5 15
2022-05-21 04:04 NNE 1 6 91 3.5 15
2022-05-21 03:04 NNE 3 5 92 3.5 15
2022-05-21 02:04 N 3 5 91 3.5 15
2022-05-21 01:04 NNE 2 9 92 3.5 16
2022-05-21 00:04 NNW 5 11 94 3.5 18
2022-05-20 23:04 NNE 6 10 95 3.5 19
2022-05-20 22:04 N 6 12 90 3.5 19
2022-05-20 21:04 NNW 9 13 93 3.5 19
2022-05-20 20:04 N 7 13 91 3.5 22
2022-05-20 19:04 N 6 18 89 3.5 23
2022-05-20 18:04 N 10 19 63 3.5 26
2022-05-20 17:04 NNW 11 20 61 3.5 26
2022-05-20 16:04 N 10 21 67 3.5 28
2022-05-20 15:04 N 15 21 75 3.5 24
2022-05-20 14:04 N 6 18 71 3.5 29
2022-05-20 13:04 N 10 20 67 3.5 26
2022-05-20 12:04 N 10 26 71 3.5 26
2022-05-20 11:04 N 12 20 82 3.49 24
2022-05-20 10:04 NNW 14 21 83 3.49 22
2022-05-20 09:04 NNW 10 16 88 3.49 19
2022-05-20 08:04 N 7 15 89 3.49 18
2022-05-20 07:04 N 7 13 90 3.49 16
2022-05-20 06:04 N 10 23 90 3.49 15
2022-05-20 05:04 N 16 23 90 3.49 15
2022-05-20 04:04 NNW 17 32 90 3.49 15
2022-05-20 03:04 NNW 18 26 91 3.49 17
2022-05-20 02:04 NW 17 27 89 3.49 17
2022-05-20 01:04 NW 20 29 88 3.49 17
2022-05-20 00:04 NW 13 21 90 3.49 17
2022-05-19 23:04 NW 13 20 86 3.49 17
2022-05-19 22:04 NW 11 20 80 3.49 18
2022-05-19 21:04 NW 11 17 72 3.49 20
2022-05-19 20:04 WNW 9 14 78 3.49 19
2022-05-19 19:04 NW 10 19 50 3.49 23
2022-05-19 18:04 W 11 19 58 3.49 24
2022-05-19 17:04 W 10 23 46 3.49 27
2022-05-19 16:04 SW 17 30 51 3.49 24
2022-05-19 15:04 SW 11 23 48 3.49 25
2022-05-19 14:04 W 14 25 54 3.49 22